Time;durP1;ratioP1;P1;durP2;ratioP2;P2;SDS_P1;SDS_P2;PMS_P1;PMS_P2;Temp;Humidity;BMP_temperature;BMP_pressure;BME280_temperature;BME280_humidity;BME280_pressure;Samples;Min_cycle;Max_cycle;Signal;HPM_P1;HPM_P2
2022/02/12 00:00:20;;;;;;;13.65;5.95;;;3.60;76.00;;;;;;5054907;28;20013;-31
2022/02/12 00:02:45;;;;;;;10.20;4.97;;;3.60;76.10;;;;;;5054861;28;20020;-32
2022/02/12 00:05:11;;;;;;;13.23;5.60;;;3.60;76.10;;;;;;5054604;28;20098;-31
2022/02/12 00:07:37;;;;;;;12.65;5.38;;;3.60;76.20;;;;;;5054828;28;20021;-30
2022/02/12 00:10:04;;;;;;;11.70;5.00;;;3.60;76.20;;;;;;5054468;28;20013;-31
2022/02/12 00:12:30;;;;;;;9.55;5.30;;;3.60;76.20;;;;;;5054701;28;20488;-31
2022/02/12 00:14:57;;;;;;;12.05;5.22;;;3.60;76.20;;;;;;5054382;28;20021;-31
2022/02/12 00:17:23;;;;;;;9.80;4.38;;;3.60;76.60;;;;;;5054618;28;20082;-34
2022/02/12 00:19:49;;;;;;;10.70;4.70;;;3.50;76.30;;;;;;5054374;28;20021;-32
2022/02/12 00:22:15;;;;;;;12.45;4.90;;;3.50;76.30;;;;;;5054579;28;20047;-33
2022/02/12 00:24:41;;;;;;;11.55;4.68;;;3.50;76.40;;;;;;5054088;28;20025;-31
2022/02/12 00:27:06;;;;;;;13.20;4.70;;;3.50;76.50;;;;;;5054101;28;20021;-34
2022/02/12 00:29:32;;;;;;;11.10;4.80;;;3.50;76.50;;;;;;5054116;28;20017;-31
2022/02/12 00:31:58;;;;;;;10.93;4.82;;;3.50;76.50;;;;;;5052841;28;20096;-30
2022/02/12 00:34:23;;;;;;;11.10;4.10;;;3.40;76.50;;;;;;5054214;28;20032;-31
2022/02/12 00:36:49;;;;;;;11.13;4.55;;;3.40;76.60;;;;;;5054029;28;20437;-30
2022/02/12 00:39:14;;;;;;;11.60;4.68;;;3.40;76.60;;;;;;5053928;28;20025;-32
2022/02/12 00:41:40;;;;;;;9.80;4.45;;;3.40;76.70;;;;;;5053831;28;20021;-32
2022/02/12 00:44:06;;;;;;;9.65;4.25;;;3.40;76.70;;;;;;5054025;28;20021;-30
2022/02/12 00:46:32;;;;;;;12.32;4.40;;;3.40;76.70;;;;;;5053735;28;20017;-31
2022/02/12 00:48:57;;;;;;;9.05;5.03;;;3.40;76.80;;;;;;5053717;28;20049;-32
2022/02/12 00:51:23;;;;;;;14.93;4.88;;;3.40;76.80;;;;;;5053806;28;20032;-31
2022/02/12 00:53:48;;;;;;;10.90;4.78;;;3.40;76.90;;;;;;5053783;28;20033;-31
2022/02/12 00:56:14;;;;;;;10.85;4.60;;;3.30;76.90;;;;;;5053602;28;20477;-30
2022/02/12 00:58:39;;;;;;;9.40;5.05;;;3.30;77.00;;;;;;5053538;28;20021;-33
2022/02/12 01:01:05;;;;;;;10.02;4.90;;;3.30;77.00;;;;;;5052199;28;20024;-31
2022/02/12 01:03:31;;;;;;;11.77;5.20;;;3.20;77.10;;;;;;5053418;28;20032;-30
2022/02/12 01:05:57;;;;;;;11.63;5.07;;;3.20;77.20;;;;;;5052721;28;20469;-31
2022/02/12 01:08:23;;;;;;;12.20;4.85;;;3.20;77.20;;;;;;5053347;28;20021;-30
2022/02/12 01:10:49;;;;;;;10.73;4.47;;;3.20;77.30;;;;;;5053351;28;20025;-30
2022/02/12 01:13:15;;;;;;;11.95;5.15;;;3.20;77.30;;;;;;5053279;28;20027;-32
2022/02/12 01:15:40;;;;;;;10.70;5.07;;;3.20;77.40;;;;;;5053601;28;20021;-32
2022/02/12 01:18:06;;;;;;;10.43;4.20;;;3.20;77.40;;;;;;5053217;28;20079;-32
2022/02/12 01:20:34;;;;;;;10.43;4.57;;;3.30;77.50;;;;;;5053227;28;20032;-31
2022/02/12 01:23:00;;;;;;;11.77;4.90;;;3.30;77.50;;;;;;5053180;28;20107;-32
2022/02/12 01:25:26;;;;;;;10.05;4.10;;;3.30;77.40;;;;;;5053114;28;20028;-31
2022/02/12 01:27:52;;;;;;;11.20;4.70;;;3.30;77.40;;;;;;5053421;28;20017;-31
2022/02/12 01:30:17;;;;;;;10.13;4.35;;;3.40;77.50;;;;;;5053117;28;20334;-34
2022/02/12 01:32:43;;;;;;;12.38;4.72;;;3.40;77.40;;;;;;5052933;28;20029;-31
2022/02/12 01:35:10;;;;;;;11.00;4.38;;;3.40;77.40;;;;;;5053150;28;20025;-32
2022/02/12 01:37:36;;;;;;;11.77;4.50;;;3.40;77.40;;;;;;5053224;28;20028;-32
2022/02/12 01:40:02;;;;;;;12.63;4.70;;;3.40;77.40;;;;;;5053220;28;20093;-31
2022/02/12 01:42:28;;;;;;;9.40;4.00;;;3.40;77.50;;;;;;5052762;28;20045;-37
2022/02/12 01:44:54;;;;;;;7.88;4.05;;;3.40;77.50;;;;;;5053112;28;20027;-31
2022/02/12 01:47:19;;;;;;;10.65;4.38;;;3.40;77.50;;;;;;5052905;28;20029;-31
2022/02/12 01:49:45;;;;;;;11.70;4.15;;;3.40;77.50;;;;;;5052856;28;20017;-31
2022/02/12 01:52:13;;;;;;;6.88;3.70;;;3.40;77.50;;;;;;5052863;28;20017;-35
2022/02/12 01:54:39;;;;;;;10.85;4.20;;;3.40;77.50;;;;;;5052737;28;20108;-33
2022/02/12 01:57:06;;;;;;;10.73;4.38;;;3.30;77.50;;;;;;5052840;28;20515;-31
2022/02/12 01:59:33;;;;;;;8.63;4.10;;;3.40;78.20;;;;;;5052669;28;20033;-34
2022/02/12 02:01:59;;;;;;;9.18;4.10;;;3.30;77.50;;;;;;5052767;28;20017;-33
2022/02/12 02:04:25;;;;;;;9.40;4.38;;;3.30;77.60;;;;;;5052579;28;20017;-32
2022/02/12 02:06:51;;;;;;;9.13;4.13;;;3.30;78.30;;;;;;5052700;28;20021;-32
2022/02/12 02:09:18;;;;;;;8.02;4.10;;;3.30;77.70;;;;;;5052773;28;20017;-32
2022/02/12 02:11:45;;;;;;;8.85;4.68;;;3.20;77.60;;;;;;5052608;28;20366;-31
2022/02/12 02:14:11;;;;;;;8.75;4.00;;;3.20;77.70;;;;;;5052647;28;20025;-33
2022/02/12 02:16:40;;;;;;;10.32;4.15;;;3.10;77.80;;;;;;5054397;28;20025;-31
2022/02/12 02:19:05;;;;;;;8.73;4.10;;;3.10;77.90;;;;;;5056825;28;20070;-31
2022/02/12 02:21:34;;;;;;;11.50;4.22;;;3.00;77.90;;;;;;5056417;28;20104;-33
2022/02/12 02:23:59;;;;;;;7.45;4.00;;;3.00;77.90;;;;;;5056264;28;20480;-33
2022/02/12 02:26:25;;;;;;;9.63;4.53;;;3.00;78.00;;;;;;5056373;28;20025;-31
2022/02/12 02:28:51;;;;;;;10.18;4.50;;;3.00;78.00;;;;;;5056424;28;20100;-31
2022/02/12 02:31:16;;;;;;;10.48;4.38;;;3.00;78.00;;;;;;5056129;28;20021;-30
2022/02/12 02:33:42;;;;;;;11.20;4.53;;;2.90;78.10;;;;;;5056191;28;20469;-31
2022/02/12 02:36:08;;;;;;;8.75;4.03;;;2.90;78.80;;;;;;5056025;28;20017;-31
2022/02/12 02:38:34;;;;;;;10.93;4.43;;;2.90;78.20;;;;;;5056235;28;20025;-37
2022/02/12 02:41:00;;;;;;;11.38;4.10;;;2.90;78.20;;;;;;5055943;28;20087;-34
2022/02/12 02:43:27;;;;;;;7.97;4.10;;;2.80;78.20;;;;;;5055606;28;20055;-30
2022/02/12 02:45:53;;;;;;;11.20;4.13;;;2.90;78.40;;;;;;5056141;28;20473;-32
2022/02/12 02:48:18;;;;;;;12.57;4.53;;;2.80;78.40;;;;;;5055879;28;20021;-33
2022/02/12 02:56:14;;;;;;;7.90;3.72;;;2.80;78.40;;;;;;5055951;28;20044;-31
2022/02/12 02:58:43;;;;;;;10.27;4.20;;;2.80;79.00;;;;;;5055623;28;20040;-33
2022/02/12 03:01:18;;;;;;;8.05;4.22;;;2.80;78.50;;;;;;5055906;28;20466;-37
2022/02/12 03:03:47;;;;;;;11.93;3.83;;;2.80;78.50;;;;;;5055744;28;20512;-38
2022/02/12 03:06:15;;;;;;;10.65;4.80;;;2.80;78.50;;;;;;5055705;28;20100;-33
2022/02/12 03:08:41;;;;;;;8.52;3.92;;;2.80;78.50;;;;;;5055579;28;20021;-36
2022/02/12 03:11:08;;;;;;;8.30;4.20;;;2.70;78.50;;;;;;5055825;28;20017;-31
2022/02/12 03:13:34;;;;;;;8.98;4.35;;;2.70;78.50;;;;;;5055536;28;20036;-31
2022/02/12 03:15:59;;;;;;;12.07;4.50;;;2.70;78.60;;;;;;5055485;28;20417;-32
2022/02/12 03:18:28;;;;;;;10.48;3.90;;;2.70;78.60;;;;;;5055596;28;20025;-32
2022/02/12 03:20:53;;;;;;;11.63;4.50;;;2.70;78.60;;;;;;5055315;28;20032;-32
2022/02/12 03:23:19;;;;;;;11.55;4.30;;;2.70;78.60;;;;;;5055225;28;20025;-31
2022/02/12 03:25:45;;;;;;;10.00;4.45;;;2.70;78.70;;;;;;5055123;28;20017;-30
2022/02/12 03:28:12;;;;;;;10.80;4.53;;;2.70;78.70;;;;;;5054304;28;20021;-33
2022/02/12 03:30:39;;;;;;;9.73;4.63;;;2.70;78.70;;;;;;5055003;28;20021;-33
2022/02/12 03:33:06;;;;;;;9.40;4.53;;;2.70;78.70;;;;;;5054865;28;20423;-32
2022/02/12 03:35:32;;;;;;;9.57;4.60;;;2.70;78.80;;;;;;5055294;28;20330;-31
2022/02/12 03:38:07;;;;;;;10.63;4.68;;;2.60;78.70;;;;;;5055040;28;20028;-31
2022/02/12 03:40:35;;;;;;;10.05;4.45;;;2.70;78.80;;;;;;5054775;28;20029;-32
2022/02/12 03:43:00;;;;;;;11.05;4.45;;;2.60;78.80;;;;;;5054797;28;20451;-31
2022/02/12 03:45:26;;;;;;;10.80;4.95;;;2.60;78.80;;;;;;5053413;28;20029;-36
2022/02/12 03:47:51;;;;;;;8.80;4.55;;;2.50;78.80;;;;;;5054759;28;20069;-31
2022/02/12 03:50:17;;;;;;;8.05;4.80;;;2.50;79.00;;;;;;5053457;28;20155;-31
2022/02/12 03:52:43;;;;;;;10.73;4.70;;;2.50;79.00;;;;;;5054650;28;20021;-33
2022/02/12 03:55:09;;;;;;;10.80;4.15;;;2.50;79.00;;;;;;5054656;28;20029;-36
2022/02/12 03:57:39;;;;;;;11.25;4.18;;;2.50;79.00;;;;;;5054459;28;20029;-31
2022/02/12 04:00:11;;;;;;;9.38;4.15;;;2.50;79.00;;;;;;5054771;28;20435;-31
2022/02/12 04:02:37;;;;;;;9.30;4.15;;;2.50;79.00;;;;;;5054309;28;20426;-31
2022/02/12 04:05:03;;;;;;;9.43;4.53;;;2.50;79.10;;;;;;5054323;28;20035;-31
2022/02/12 04:07:28;;;;;;;9.00;4.68;;;2.40;79.20;;;;;;5054303;28;20017;-32
2022/02/12 04:09:54;;;;;;;10.70;4.47;;;2.40;79.20;;;;;;5054592;28;20104;-31
2022/02/12 04:12:19;;;;;;;12.75;4.10;;;2.50;79.20;;;;;;5054337;28;20515;-32
2022/02/12 04:14:45;;;;;;;11.30;3.90;;;2.50;79.30;;;;;;5054329;28;20496;-31
2022/02/12 04:17:10;;;;;;;6.35;4.30;;;2.40;79.20;;;;;;5054189;28;20393;-32
2022/02/12 04:19:36;;;;;;;10.15;4.85;;;2.40;79.20;;;;;;5054101;28;20033;-30
2022/02/12 04:22:02;;;;;;;8.02;4.22;;;2.50;79.30;;;;;;5054180;28;20090;-33
2022/02/12 04:24:27;;;;;;;10.32;4.32;;;2.50;79.20;;;;;;5054122;28;20021;-32
2022/02/12 04:26:53;;;;;;;10.45;4.72;;;2.50;79.20;;;;;;5054074;28;20059;-36
2022/02/12 04:29:18;;;;;;;12.25;5.15;;;2.50;79.20;;;;;;5054021;28;20025;-32
2022/02/12 04:31:44;;;;;;;10.77;4.68;;;2.50;79.20;;;;;;5053938;28;20533;-31
2022/02/12 04:34:10;;;;;;;8.00;4.50;;;2.50;79.20;;;;;;5053968;28;20425;-32
2022/02/12 04:36:36;;;;;;;8.15;4.40;;;2.50;79.30;;;;;;5053908;28;20393;-36
2022/02/12 04:39:01;;;;;;;10.73;4.10;;;2.40;79.30;;;;;;5054019;28;20065;-37
2022/02/12 04:41:27;;;;;;;11.52;4.63;;;2.40;79.30;;;;;;5054067;28;20032;-32
2022/02/12 04:43:52;;;;;;;10.55;4.40;;;2.40;79.30;;;;;;5053541;28;20048;-34
2022/02/12 04:46:18;;;;;;;9.88;4.57;;;2.40;79.40;;;;;;5053878;28;20079;-31
2022/02/12 04:48:48;;;;;;;6.68;4.20;;;2.40;79.40;;;;;;5053833;28;20079;-35
2022/02/12 04:51:17;;;;;;;11.23;4.38;;;2.40;79.40;;;;;;5054010;28;20025;-31
2022/02/12 04:53:43;;;;;;;7.82;4.13;;;2.30;79.40;;;;;;5052322;28;20043;-31
2022/02/12 04:56:09;;;;;;;8.27;3.63;;;2.30;79.40;;;;;;5052186;28;20025;-30
2022/02/12 04:58:34;;;;;;;9.68;4.05;;;2.30;79.50;;;;;;5053550;28;20029;-31
2022/02/12 05:01:00;;;;;;;11.10;4.72;;;2.30;79.60;;;;;;5052286;28;20032;-31
2022/02/12 05:03:26;;;;;;;8.50;3.90;;;2.30;79.60;;;;;;5053244;28;20040;-31
2022/02/12 05:05:51;;;;;;;10.80;4.55;;;2.30;79.50;;;;;;5053363;28;20431;-30
2022/02/12 05:08:17;;;;;;;12.30;4.15;;;2.30;79.50;;;;;;5053373;28;20107;-31
2022/02/12 05:10:42;;;;;;;8.85;4.13;;;2.30;79.60;;;;;;5053116;28;20492;-31
2022/02/12 05:13:08;;;;;;;9.82;3.80;;;2.30;79.60;;;;;;5053057;28;20021;-32
2022/02/12 05:15:34;;;;;;;7.80;4.38;;;2.30;79.70;;;;;;5051680;28;20036;-31
2022/02/12 05:17:59;;;;;;;8.68;3.90;;;2.20;79.60;;;;;;5052974;28;20025;-30
2022/02/12 05:20:25;;;;;;;9.75;3.75;;;2.20;79.60;;;;;;5052988;28;20039;-35
2022/02/12 05:22:51;;;;;;;7.65;3.90;;;2.20;79.60;;;;;;5052895;28;20392;-31
2022/02/12 05:25:16;;;;;;;10.35;4.22;;;2.20;79.60;;;;;;5052860;28;20025;-30
2022/02/12 05:27:42;;;;;;;8.73;4.50;;;2.20;79.60;;;;;;5052833;28;20154;-31
2022/02/12 05:30:08;;;;;;;11.02;4.50;;;2.20;79.70;;;;;;5052834;28;20362;-30
2022/02/12 05:32:34;;;;;;;11.68;4.25;;;2.20;79.60;;;;;;5052759;28;20024;-30
2022/02/12 05:34:59;;;;;;;10.95;4.03;;;2.20;79.60;;;;;;5052969;28;20580;-30
2022/02/12 05:37:25;;;;;;;9.40;3.92;;;2.20;79.60;;;;;;5052636;28;20029;-32
2022/02/12 05:39:50;;;;;;;12.65;3.85;;;2.20;79.60;;;;;;5052658;28;20029;-31
2022/02/12 05:42:16;;;;;;;10.68;4.18;;;2.20;79.60;;;;;;5052619;28;20187;-35
2022/02/12 05:44:41;;;;;;;14.55;4.60;;;2.20;79.60;;;;;;5052721;28;20488;-30
2022/02/12 05:47:07;;;;;;;10.35;4.43;;;2.10;80.10;;;;;;5052638;28;20021;-31
2022/02/12 05:49:32;;;;;;;8.65;4.32;;;2.20;79.60;;;;;;5052681;28;20028;-32
2022/02/12 05:51:58;;;;;;;9.68;3.80;;;2.10;79.50;;;;;;5050829;28;20523;-35
2022/02/12 05:54:24;;;;;;;9.52;3.70;;;2.10;79.50;;;;;;5052418;28;20025;-30
2022/02/12 05:56:49;;;;;;;11.43;4.05;;;2.10;79.50;;;;;;5052492;28;20028;-30
2022/02/12 05:59:18;;;;;;;11.52;4.00;;;2.10;79.60;;;;;;5052406;28;20370;-36
2022/02/12 06:01:44;;;;;;;11.15;4.10;;;2.10;79.60;;;;;;5052695;28;20181;-34
2022/02/12 06:04:10;;;;;;;6.88;3.83;;;2.10;79.60;;;;;;5052441;28;20021;-37
2022/02/12 06:06:36;;;;;;;12.70;4.05;;;2.10;79.50;;;;;;5052713;28;20021;-32
2022/02/12 06:09:02;;;;;;;9.15;4.15;;;2.00;79.50;;;;;;5052404;28;20063;-40
2022/02/12 06:11:28;;;;;;;9.77;4.13;;;2.00;79.60;;;;;;5052316;28;20032;-32
2022/02/12 06:13:53;;;;;;;12.85;4.30;;;2.10;79.60;;;;;;5052304;28;20025;-32
2022/02/12 06:16:23;;;;;;;9.88;3.85;;;2.00;79.60;;;;;;5052424;28;20032;-31
2022/02/12 06:18:49;;;;;;;11.23;4.55;;;2.00;79.60;;;;;;5052346;28;20021;-31
2022/02/12 06:21:15;;;;;;;10.75;4.30;;;2.00;79.60;;;;;;5052601;28;20495;-32
2022/02/12 06:23:41;;;;;;;10.77;4.15;;;2.00;79.60;;;;;;5052246;28;20029;-31
2022/02/12 06:26:11;;;;;;;10.60;4.22;;;2.00;79.60;;;;;;5052392;28;20048;-35
2022/02/12 06:28:37;;;;;;;8.02;4.60;;;2.00;79.60;;;;;;5052363;28;20043;-32
2022/02/12 06:31:03;;;;;;;10.52;4.80;;;2.00;79.60;;;;;;5052350;28;20123;-32
2022/02/12 06:33:30;;;;;;;11.10;4.47;;;2.00;79.60;;;;;;5051914;28;20071;-30
2022/02/12 06:35:56;;;;;;;9.45;3.92;;;1.90;79.60;;;;;;5052288;28;20039;-30
2022/02/12 06:38:22;;;;;;;12.80;4.53;;;1.90;79.60;;;;;;5052504;28;20019;-30
2022/02/12 06:40:48;;;;;;;8.43;4.18;;;1.90;79.60;;;;;;5052506;28;20017;-31
2022/02/12 06:43:13;;;;;;;13.45;4.55;;;1.90;79.70;;;;;;5052109;28;20130;-33
2022/02/12 06:45:40;;;;;;;6.72;3.60;;;1.90;79.70;;;;;;5052070;28;20029;-35
2022/02/12 06:48:05;;;;;;;10.52;4.57;;;1.90;79.70;;;;;;5052494;28;20470;-31
2022/02/12 06:50:32;;;;;;;7.65;3.75;;;1.90;79.70;;;;;;5052151;28;20112;-33
2022/02/12 06:52:58;;;;;;;9.38;4.57;;;1.90;79.70;;;;;;5052443;28;20056;-31
2022/02/12 06:55:24;;;;;;;7.30;4.13;;;1.90;79.70;;;;;;5052462;28;20029;-34
2022/02/12 06:57:50;;;;;;;9.50;4.55;;;1.90;79.70;;;;;;5051114;28;20516;-31
2022/02/12 07:00:16;;;;;;;9.48;4.50;;;1.90;79.80;;;;;;5052158;28;20016;-34
2022/02/12 07:02:42;;;;;;;13.93;4.90;;;1.90;79.70;;;;;;5052452;28;20488;-31
2022/02/12 07:05:08;;;;;;;8.85;4.60;;;1.90;79.70;;;;;;5055483;28;20025;-32
2022/02/12 07:07:44;;;;;;;11.30;4.38;;;1.90;79.70;;;;;;5055508;28;20477;-31
2022/02/12 07:10:09;;;;;;;12.10;4.45;;;1.90;79.70;;;;;;5055554;28;20017;-31
2022/02/12 07:12:35;;;;;;;17.63;5.80;;;1.90;79.60;;;;;;5055431;28;20028;-32
2022/02/12 07:15:01;;;;;;;10.88;5.30;;;1.90;79.70;;;;;;5055445;28;20553;-31
2022/02/12 07:17:26;;;;;;;11.07;5.15;;;1.90;79.70;;;;;;5055202;28;20021;-32
2022/02/12 07:19:52;;;;;;;10.63;4.40;;;1.90;79.70;;;;;;5055212;28;20025;-32
2022/02/12 07:22:24;;;;;;;10.15;4.93;;;1.90;79.70;;;;;;5055226;28;20127;-31
2022/02/12 07:24:49;;;;;;;9.07;4.15;;;1.90;79.70;;;;;;5055191;28;20040;-33
2022/02/12 07:27:15;;;;;;;12.73;4.78;;;1.90;79.60;;;;;;5055103;28;20024;-32
2022/02/12 07:29:40;;;;;;;6.45;4.15;;;1.90;79.70;;;;;;5055163;28;20032;-34
2022/02/12 07:32:06;;;;;;;13.57;4.93;;;2.00;79.70;;;;;;5055219;28;20017;-33
2022/02/12 07:34:32;;;;;;;9.23;4.88;;;2.00;79.70;;;;;;5055001;28;20112;-31
2022/02/12 07:36:57;;;;;;;12.95;5.18;;;2.00;80.30;;;;;;5054963;28;20028;-36
2022/02/12 07:39:23;;;;;;;10.85;4.80;;;2.00;79.60;;;;;;5055032;28;20388;-33
2022/02/12 07:41:49;;;;;;;10.77;4.80;;;2.00;79.60;;;;;;5054865;28;20051;-32
2022/02/12 07:44:14;;;;;;;8.35;4.22;;;2.00;80.10;;;;;;5055143;28;20028;-31
2022/02/12 07:46:40;;;;;;;12.23;5.05;;;2.00;79.50;;;;;;5055105;28;20427;-30
2022/02/12 07:49:05;;;;;;;10.52;4.22;;;2.00;79.40;;;;;;5054825;28;20025;-30
2022/02/12 07:51:31;;;;;;;11.18;5.13;;;2.10;79.50;;;;;;5054704;28;20013;-32
2022/02/12 07:53:57;;;;;;;14.30;4.82;;;2.10;79.40;;;;;;5053674;28;20021;-31
2022/02/12 07:56:23;;;;;;;9.77;4.28;;;2.10;79.40;;;;;;5054802;28;20029;-30
2022/02/12 07:58:49;;;;;;;10.70;4.68;;;2.10;79.30;;;;;;5053650;28;20484;-34
2022/02/12 08:01:14;;;;;;;10.85;4.70;;;2.20;79.30;;;;;;5055022;28;20136;-30
2022/02/12 08:03:40;;;;;;;8.90;4.13;;;2.20;79.20;;;;;;5054517;28;20363;-30
2022/02/12 08:07:27;;;;;;;8.98;4.32;;;2.20;79.20;;;;;;5054646;28;20385;-30
2022/02/12 08:08:52;;;;;;;11.38;4.28;;;2.20;79.20;;;;;;5054473;28;20025;-31
2022/02/12 08:11:23;;;;;;;9.80;4.57;;;2.30;79.20;;;;;;5054785;28;20024;-33
2022/02/12 08:13:50;;;;;;;9.18;4.43;;;2.30;79.10;;;;;;5054407;28;20116;-30
2022/02/12 08:16:16;;;;;;;8.70;4.20;;;2.40;79.10;;;;;;5053561;28;20021;-34
2022/02/12 08:18:42;;;;;;;7.97;4.32;;;2.40;79.00;;;;;;5054491;28;20025;-37
2022/02/12 08:21:08;;;;;;;11.90;4.68;;;2.40;79.00;;;;;;5054702;28;20028;-35
2022/02/12 08:23:33;;;;;;;6.95;4.32;;;2.50;78.90;;;;;;5054288;28;20067;-31
2022/02/12 08:25:59;;;;;;;12.13;4.65;;;2.50;78.90;;;;;;5054163;28;20452;-33
2022/02/12 08:28:24;;;;;;;17.27;6.75;;;2.50;78.80;;;;;;5054087;28;20470;-30
2022/02/12 08:30:50;;;;;;;14.63;5.90;;;2.50;78.80;;;;;;5054070;28;20013;-30
2022/02/12 08:33:16;;;;;;;11.68;5.53;;;2.50;78.80;;;;;;5054263;28;20113;-32
2022/02/12 08:35:41;;;;;;;9.88;5.30;;;2.60;78.80;;;;;;5053966;28;20493;-32
2022/02/12 08:38:07;;;;;;;8.23;4.22;;;2.60;78.70;;;;;;5054107;28;20435;-35
2022/02/12 08:40:33;;;;;;;9.85;4.50;;;2.60;78.60;;;;;;5053917;28;20025;-31
2022/02/12 08:42:59;;;;;;;12.35;4.65;;;2.70;78.70;;;;;;5053764;28;20052;-33
2022/02/12 08:45:25;;;;;;;14.25;5.45;;;2.70;78.60;;;;;;5053729;28;20029;-33
2022/02/12 08:47:50;;;;;;;9.68;4.57;;;2.80;78.50;;;;;;5053903;28;20025;-35
2022/02/12 08:50:16;;;;;;;11.20;4.40;;;2.80;78.40;;;;;;5053863;28;20021;-32
2022/02/12 08:52:43;;;;;;;9.85;4.78;;;2.80;78.40;;;;;;5053882;28;20017;-31
2022/02/12 08:55:10;;;;;;;7.38;4.47;;;2.90;78.40;;;;;;5054069;28;20032;-31
2022/02/12 08:57:36;;;;;;;10.57;4.28;;;2.90;78.40;;;;;;5054007;28;20474;-38
2022/02/12 09:00:05;;;;;;;7.80;4.20;;;3.00;78.30;;;;;;5053767;28;20029;-36
2022/02/12 09:02:31;;;;;;;8.18;4.15;;;3.00;78.30;;;;;;5053917;28;20469;-35
2022/02/12 09:04:56;;;;;;;10.32;3.50;;;3.00;78.20;;;;;;5053625;28;20017;-32
2022/02/12 09:07:23;;;;;;;8.65;3.95;;;3.10;78.20;;;;;;5053579;28;20024;-33
2022/02/12 09:09:49;;;;;;;7.53;3.78;;;3.10;78.10;;;;;;5053412;28;20028;-35
2022/02/12 09:12:14;;;;;;;9.52;3.83;;;3.10;78.10;;;;;;5053821;28;20013;-32
2022/02/12 09:14:40;;;;;;;8.18;3.42;;;3.20;78.10;;;;;;5053392;28;20056;-32
2022/02/12 09:17:06;;;;;;;8.05;3.70;;;3.20;78.00;;;;;;5053685;28;20059;-32
2022/02/12 09:19:32;;;;;;;6.85;3.90;;;3.20;77.90;;;;;;5053593;28;20158;-30
2022/02/12 09:21:58;;;;;;;10.30;3.08;;;3.30;77.90;;;;;;5053666;28;20108;-31
2022/02/12 09:24:23;;;;;;;7.40;3.58;;;3.40;77.80;;;;;;5053454;28;20109;-33
2022/02/12 09:26:49;;;;;;;6.60;3.42;;;3.40;77.70;;;;;;5051292;28;20027;-36
2022/02/12 09:29:14;;;;;;;4.85;3.42;;;3.50;77.60;;;;;;5053252;28;20096;-33
2022/02/12 09:31:40;;;;;;;11.07;3.50;;;3.60;77.60;;;;;;5053220;28;20021;-32
2022/02/12 09:34:08;;;;;;;7.25;3.05;;;3.60;77.50;;;;;;5053208;28;20384;-33
2022/02/12 09:36:34;;;;;;;7.93;3.15;;;3.70;77.40;;;;;;5053122;28;20090;-31
2022/02/12 09:39:00;;;;;;;8.85;3.08;;;3.80;77.30;;;;;;5053230;28;20025;-32
2022/02/12 09:41:27;;;;;;;11.32;3.20;;;3.90;77.20;;;;;;5053094;28;20025;-32
2022/02/12 09:43:54;;;;;;;7.88;3.40;;;4.00;77.10;;;;;;5052828;28;20099;-35
2022/02/12 09:46:54;;;;;;;8.18;2.97;;;4.00;76.90;;;;;;5053191;28;20045;-31
2022/02/12 09:49:20;;;;;;;9.63;3.00;;;4.10;76.80;;;;;;5052939;28;20052;-32
2022/02/12 09:51:47;;;;;;;8.55;3.15;;;4.20;76.70;;;;;;5053182;28;20461;-31
2022/02/12 09:54:13;;;;;;;11.40;3.63;;;4.30;76.60;;;;;;5052904;28;20024;-30
2022/02/12 09:56:40;;;;;;;7.78;3.30;;;4.30;77.00;;;;;;5052951;28;20107;-30
2022/02/12 09:59:05;;;;;;;10.68;3.45;;;4.40;76.30;;;;;;5053115;28;20029;-32
2022/02/12 10:01:31;;;;;;;8.82;3.20;;;4.40;76.10;;;;;;5052740;28;20527;-32
2022/02/12 10:03:56;;;;;;;9.45;3.55;;;4.50;76.00;;;;;;5052936;28;20086;-34
2022/02/12 10:06:42;;;;;;;8.18;3.05;;;4.60;75.90;;;;;;5052711;28;20029;-36
2022/02/12 10:09:09;;;;;;;13.10;3.50;;;4.60;75.50;;;;;;5052999;28;20500;-33
2022/02/12 10:11:50;;;;;;;9.68;3.13;;;4.70;75.20;;;;;;5052604;28;20055;-32
2022/02/12 10:14:23;;;;;;;7.65;3.10;;;4.80;74.90;;;;;;5052651;28;20365;-32
2022/02/12 10:16:58;;;;;;;10.25;2.97;;;4.80;74.60;;;;;;5052549;28;20021;-33
2022/02/12 10:19:33;;;;;;;8.57;2.85;;;4.90;74.30;;;;;;5052546;28;20481;-32
2022/02/12 10:22:08;;;;;;;9.60;3.00;;;5.00;74.10;;;;;;5052425;28;20517;-35
2022/02/12 10:24:45;;;;;;;12.65;3.30;;;5.00;73.70;;;;;;5052613;28;20025;-32
2022/02/12 10:27:11;;;;;;;6.53;2.92;;;5.10;73.50;;;;;;5052765;28;20481;-31
2022/02/12 10:29:37;;;;;;;6.88;2.80;;;5.20;73.10;;;;;;5052448;28;20021;-34
2022/02/12 10:32:03;;;;;;;7.97;4.05;;;5.20;73.00;;;;;;5052295;28;20378;-30
2022/02/12 10:34:40;;;;;;;10.13;4.47;;;5.30;72.60;;;;;;5052484;28;20543;-33
2022/02/12 10:37:06;;;;;;;10.85;4.72;;;5.40;72.60;;;;;;5053637;28;20044;-32
2022/02/12 10:39:37;;;;;;;10.85;4.75;;;5.40;72.30;;;;;;5056231;28;20051;-32
2022/02/12 10:42:07;;;;;;;14.57;5.10;;;5.40;72.00;;;;;;5056019;28;20045;-33
2022/02/12 10:44:32;;;;;;;11.50;4.50;;;5.50;71.90;;;;;;5056288;28;20389;-30
2022/02/12 10:46:58;;;;;;;10.23;3.88;;;5.60;71.90;;;;;;5055015;28;20033;-32
2022/02/12 10:49:25;;;;;;;8.98;3.33;;;5.60;71.40;;;;;;5056113;28;20450;-32
2022/02/12 10:51:52;;;;;;;6.05;3.15;;;5.70;70.90;;;;;;5056415;28;20033;-31
2022/02/12 10:54:19;;;;;;;7.10;2.67;;;5.80;70.90;;;;;;5056136;28;20029;-35
2022/02/12 10:57:00;;;;;;;7.85;2.78;;;5.80;70.80;;;;;;5056231;28;20488;-32
2022/02/12 10:59:25;;;;;;;7.47;2.35;;;5.90;70.60;;;;;;5055988;28;20071;-32
2022/02/12 11:01:53;;;;;;;5.38;2.17;;;6.00;70.40;;;;;;5055942;28;20067;-32
2022/02/12 11:04:19;;;;;;;4.55;2.33;;;6.00;70.10;;;;;;5055818;28;20112;-33
2022/02/12 11:06:46;;;;;;;10.93;3.10;;;6.10;70.00;;;;;;5056051;28;20362;-32
2022/02/12 11:09:13;;;;;;;6.60;2.67;;;6.10;70.00;;;;;;5055784;28;20029;-35
2022/02/12 11:11:38;;;;;;;7.38;2.60;;;6.10;69.80;;;;;;5055695;28;20030;-34
2022/02/12 11:14:08;;;;;;;8.70;2.40;;;6.00;69.50;;;;;;5055698;28;20040;-32
2022/02/12 11:16:35;;;;;;;9.38;2.50;;;6.00;69.50;;;;;;5055629;28;20427;-32
2022/02/12 11:19:02;;;;;;;7.95;2.70;;;6.10;69.40;;;;;;5055489;28;20044;-32
2022/02/12 11:21:29;;;;;;;6.18;2.42;;;6.10;69.30;;;;;;5055371;28;20025;-33
2022/02/12 11:24:02;;;;;;;7.22;2.53;;;6.20;69.30;;;;;;5055500;28;20029;-33
2022/02/12 11:26:37;;;;;;;6.07;2.45;;;6.30;69.40;;;;;;5055407;28;20041;-35
2022/02/12 11:29:33;;;;;;;7.93;3.20;;;6.40;69.90;;;;;;5055541;28;20029;-34
2022/02/12 11:32:21;;;;;;;7.50;2.65;;;6.40;69.20;;;;;;5055753;28;20029;-38
2022/02/12 11:34:57;;;;;;;6.80;2.10;;;6.50;69.00;;;;;;5055329;28;20036;-34
2022/02/12 11:37:29;;;;;;;6.78;2.10;;;6.50;69.20;;;;;;5055536;28;20059;-33
2022/02/12 11:40:17;;;;;;;5.40;2.33;;;6.60;70.10;;;;;;5055485;28;20100;-33
2022/02/12 11:42:59;;;;;;;6.97;3.10;;;6.70;70.30;;;;;;5055026;28;20491;-37
2022/02/12 11:45:30;;;;;;;8.18;2.35;;;6.70;70.00;;;;;;5055008;28;20037;-37
2022/02/12 11:48:27;;;;;;;5.40;2.42;;;6.80;70.30;;;;;;5054860;28;20029;-36
2022/02/12 11:51:06;;;;;;;6.57;2.30;;;6.80;69.60;;;;;;5055081;28;20108;-32
2022/02/12 11:53:34;;;;;;;4.60;2.10;;;6.90;69.30;;;;;;5054893;28;20032;-33
2022/02/12 11:56:09;;;;;;;6.35;2.15;;;6.90;69.20;;;;;;5053762;28;20021;-34
2022/02/12 11:58:41;;;;;;;6.20;2.20;;;7.00;69.10;;;;;;5055106;28;20477;-36
2022/02/12 12:01:35;;;;;;;8.63;2.50;;;7.00;69.40;;;;;;5054838;28;20059;-40
2022/02/12 12:04:00;;;;;;;;;;;7.10;68.40;;;;;;5052506;28;20040;-33
2022/02/12 12:06:26;;;;;;;6.78;2.40;;;7.10;69.20;;;;;;5054752;28;20211;-35
2022/02/12 12:09:08;;;;;;;6.75;2.47;;;7.20;69.20;;;;;;5054821;28;20385;-35
2022/02/12 12:11:35;;;;;;;7.20;2.58;;;7.20;67.90;;;;;;5054894;28;20112;-33
2022/02/12 12:14:22;;;;;;;8.48;2.42;;;7.20;67.10;;;;;;5054989;28;20036;-34
2022/02/12 12:17:01;;;;;;;7.35;2.33;;;7.30;66.90;;;;;;5054495;28;20032;-34
2022/02/12 12:19:27;;;;;;;8.02;2.40;;;7.30;66.30;;;;;;5054503;28;20029;-34
2022/02/12 12:22:10;;;;;;;4.22;1.80;;;7.30;66.30;;;;;;5054690;28;20056;-34
2022/02/12 12:24:36;;;;;;;6.13;2.42;;;7.40;65.60;;;;;;5054488;28;20112;-34
2022/02/12 12:27:03;;;;;;;7.35;2.30;;;7.40;65.00;;;;;;5054467;28;20090;-33
2022/02/12 12:32:16;;;;;;;5.30;2.17;;;7.50;64.80;;;;;;5054427;28;20048;-36
2022/02/12 12:35:00;;;;;;;4.53;2.00;;;7.60;64.60;;;;;;5054224;28;20450;-32
2022/02/12 12:37:27;;;;;;;10.35;2.45;;;7.70;64.30;;;;;;5054356;28;20416;-37
2022/02/12 12:39:56;;;;;;;7.38;2.67;;;7.70;64.30;;;;;;5054157;28;20033;-35
2022/02/12 12:42:24;;;;;;;10.20;2.45;;;7.70;63.90;;;;;;5054087;28;20063;-33
2022/02/12 12:45:12;;;;;;;8.30;2.60;;;7.80;63.30;;;;;;5053794;28;20097;-38
2022/02/12 12:47:50;;;;;;;5.78;2.35;;;7.80;63.40;;;;;;5054258;28;20032;-31
2022/02/12 12:50:15;;;;;;;5.60;2.17;;;7.80;62.40;;;;;;5053851;28;20033;-34
2022/02/12 12:52:41;;;;;;;7.78;2.53;;;7.90;62.60;;;;;;5054012;28;20028;-32
2022/02/12 12:55:11;;;;;;;8.93;2.53;;;8.00;61.90;;;;;;5054022;28;20382;-36
2022/02/12 12:57:43;;;;;;;4.88;2.15;;;8.00;61.20;;;;;;5053673;28;20051;-32
2022/02/12 13:00:17;;;;;;;7.25;2.35;;;8.10;61.40;;;;;;5052834;28;20033;-32
2022/02/12 13:02:53;;;;;;;7.03;2.38;;;8.10;60.00;;;;;;5051865;28;20039;-32